sensor_id;sensor_type;location;lat;lon;timestamp;P1;durP1;ratioP1;P2;durP2;ratioP2
70806;SDS011;58882;52.170;5.386;2023-01-10T00:02:05;9.95;;;1.85;;
70806;SDS011;58882;52.170;5.386;2023-01-10T00:04:45;14.32;;;2.08;;
70806;SDS011;58882;52.170;5.386;2023-01-10T00:07:32;13.57;;;2.10;;
70806;SDS011;58882;52.170;5.386;2023-01-10T00:10:12;16.13;;;1.95;;
70806;SDS011;58882;52.170;5.386;2023-01-10T00:13:06;17.08;;;2.05;;
70806;SDS011;58882;52.170;5.386;2023-01-10T00:16:06;9.60;;;1.80;;
70806;SDS011;58882;52.170;5.386;2023-01-10T00:18:55;11.35;;;1.77;;
70806;SDS011;58882;52.170;5.386;2023-01-10T00:21:35;11.98;;;1.92;;
70806;SDS011;58882;52.170;5.386;2023-01-10T00:27:03;13.20;;;2.08;;
70806;SDS011;58882;52.170;5.386;2023-01-10T00:32:31;11.77;;;1.88;;
70806;SDS011;58882;52.170;5.386;2023-01-10T00:35:18;13.88;;;2.28;;
70806;SDS011;58882;52.170;5.386;2023-01-10T00:37:58;10.85;;;1.52;;
70806;SDS011;58882;52.170;5.386;2023-01-10T00:40:52;9.98;;;1.45;;
70806;SDS011;58882;52.170;5.386;2023-01-10T00:43:46;11.63;;;1.90;;
70806;SDS011;58882;52.170;5.386;2023-01-10T00:46:35;10.30;;;1.75;;
70806;SDS011;58882;52.170;5.386;2023-01-10T00:49:22;10.85;;;1.63;;
70806;SDS011;58882;52.170;5.386;2023-01-10T00:52:02;12.60;;;2.47;;
70806;SDS011;58882;52.170;5.386;2023-01-10T00:54:56;14.43;;;1.55;;
70806;SDS011;58882;52.170;5.386;2023-01-10T00:57:36;11.90;;;1.80;;
70806;SDS011;58882;52.170;5.386;2023-01-10T01:00:30;12.27;;;1.60;;
70806;SDS011;58882;52.170;5.386;2023-01-10T01:03:24;12.80;;;1.90;;
70806;SDS011;58882;52.170;5.386;2023-01-10T01:06:04;14.68;;;1.95;;
70806;SDS011;58882;52.170;5.386;2023-01-10T01:08:59;12.43;;;1.85;;
70806;SDS011;58882;52.170;5.386;2023-01-10T01:11:39;12.63;;;2.22;;
70806;SDS011;58882;52.170;5.386;2023-01-10T01:14:33;14.70;;;1.85;;
70806;SDS011;58882;52.170;5.386;2023-01-10T01:17:06;13.13;;;1.92;;
70806;SDS011;58882;52.170;5.386;2023-01-10T01:20:00;12.23;;;1.80;;
70806;SDS011;58882;52.170;5.386;2023-01-10T01:22:33;11.90;;;2.30;;
70806;SDS011;58882;52.170;5.386;2023-01-10T01:25:27;11.88;;;1.70;;
70806;SDS011;58882;52.170;5.386;2023-01-10T01:28:08;8.82;;;1.40;;
70806;SDS011;58882;52.170;5.386;2023-01-10T01:30:58;10.57;;;1.83;;
70806;SDS011;58882;52.170;5.386;2023-01-10T01:33:38;17.40;;;1.90;;
70806;SDS011;58882;52.170;5.386;2023-01-10T01:36:32;11.80;;;2.10;;
70806;SDS011;58882;52.170;5.386;2023-01-10T01:39:12;14.00;;;2.08;;
70806;SDS011;58882;52.170;5.386;2023-01-10T01:42:11;11.50;;;1.75;;
70806;SDS011;58882;52.170;5.386;2023-01-10T01:48:13;12.02;;;1.83;;
70806;SDS011;58882;52.170;5.386;2023-01-10T01:51:15;11.52;;;1.70;;
70806;SDS011;58882;52.170;5.386;2023-01-10T01:54:07;11.82;;;1.63;;
70806;SDS011;58882;52.170;5.386;2023-01-10T01:56:51;10.95;;;1.50;;
70806;SDS011;58882;52.170;5.386;2023-01-10T01:59:51;11.07;;;1.67;;
70806;SDS011;58882;52.170;5.386;2023-01-10T02:02:48;11.77;;;2.15;;
70806;SDS011;58882;52.170;5.386;2023-01-10T02:05:35;15.07;;;1.70;;
70806;SDS011;58882;52.170;5.386;2023-01-10T02:08:31;15.80;;;1.92;;
70806;SDS011;58882;52.170;5.386;2023-01-10T02:11:07;10.68;;;1.60;;
70806;SDS011;58882;52.170;5.386;2023-01-10T02:14:02;10.43;;;2.00;;
70806;SDS011;58882;52.170;5.386;2023-01-10T02:16:45;15.23;;;1.75;;
70806;SDS011;58882;52.170;5.386;2023-01-10T02:38:10;11.27;;;1.58;;
70806;SDS011;58882;52.170;5.386;2023-01-10T02:47:06;13.95;;;1.80;;
70806;SDS011;58882;52.170;5.386;2023-01-10T02:49:54;11.98;;;1.73;;
70806;SDS011;58882;52.170;5.386;2023-01-10T02:52:34;10.05;;;1.80;;
70806;SDS011;58882;52.170;5.386;2023-01-10T02:55:21;13.00;;;1.58;;
70806;SDS011;58882;52.170;5.386;2023-01-10T03:02:02;8.60;;;1.50;;
70806;SDS011;58882;52.170;5.386;2023-01-10T03:04:25;12.73;;;2.05;;
70806;SDS011;58882;52.170;5.386;2023-01-10T03:07:48;9.43;;;1.75;;
70806;SDS011;58882;52.170;5.386;2023-01-10T03:10:41;12.80;;;1.70;;
70806;SDS011;58882;52.170;5.386;2023-01-10T03:13:51;13.85;;;1.80;;
70806;SDS011;58882;52.170;5.386;2023-01-10T03:16:29;12.13;;;1.83;;
70806;SDS011;58882;52.170;5.386;2023-01-10T03:19:28;12.57;;;1.90;;
70806;SDS011;58882;52.170;5.386;2023-01-10T03:22:06;14.57;;;1.77;;
70806;SDS011;58882;52.170;5.386;2023-01-10T03:25:03;8.60;;;1.50;;
70806;SDS011;58882;52.170;5.386;2023-01-10T03:27:50;9.52;;;1.85;;
70806;SDS011;58882;52.170;5.386;2023-01-10T03:30:49;14.13;;;2.10;;
70806;SDS011;58882;52.170;5.386;2023-01-10T03:33:26;12.55;;;2.35;;
70806;SDS011;58882;52.170;5.386;2023-01-10T03:39:39;17.70;;;2.30;;
70806;SDS011;58882;52.170;5.386;2023-01-10T03:42:42;12.45;;;1.80;;
70806;SDS011;58882;52.170;5.386;2023-01-10T03:45:54;13.77;;;1.80;;
70806;SDS011;58882;52.170;5.386;2023-01-10T03:48:48;14.02;;;1.60;;
70806;SDS011;58882;52.170;5.386;2023-01-10T03:51:28;11.23;;;1.90;;
70806;SDS011;58882;52.170;5.386;2023-01-10T03:54:23;13.23;;;2.17;;
70806;SDS011;58882;52.170;5.386;2023-01-10T03:57:04;15.25;;;2.47;;
70806;SDS011;58882;52.170;5.386;2023-01-10T03:59:54;14.48;;;2.00;;
70806;SDS011;58882;52.170;5.386;2023-01-10T04:02:36;14.07;;;1.98;;
70806;SDS011;58882;52.170;5.386;2023-01-10T04:05:30;15.23;;;1.73;;
70806;SDS011;58882;52.170;5.386;2023-01-10T04:08:10;19.35;;;2.83;;
70806;SDS011;58882;52.170;5.386;2023-01-10T04:10:57;18.73;;;2.28;;
70806;SDS011;58882;52.170;5.386;2023-01-10T04:13:40;16.85;;;2.25;;
70806;SDS011;58882;52.170;5.386;2023-01-10T04:16:28;15.25;;;2.50;;
70806;SDS011;58882;52.170;5.386;2023-01-10T04:19:01;15.57;;;2.00;;
70806;SDS011;58882;52.170;5.386;2023-01-10T04:21:55;15.35;;;2.33;;
70806;SDS011;58882;52.170;5.386;2023-01-10T04:24:28;16.67;;;2.30;;
70806;SDS011;58882;52.170;5.386;2023-01-10T04:27:22;17.63;;;2.25;;
70806;SDS011;58882;52.170;5.386;2023-01-10T04:30:03;15.65;;;2.17;;
70806;SDS011;58882;52.170;5.386;2023-01-10T04:32:51;11.75;;;2.05;;
70806;SDS011;58882;52.170;5.386;2023-01-10T04:35:31;13.90;;;2.10;;
70806;SDS011;58882;52.170;5.386;2023-01-10T04:38:18;16.98;;;2.00;;
70806;SDS011;58882;52.170;5.386;2023-01-10T04:40:58;13.15;;;2.03;;
70806;SDS011;58882;52.170;5.386;2023-01-10T04:43:45;15.15;;;1.80;;
70806;SDS011;58882;52.170;5.386;2023-01-10T04:46:25;11.68;;;2.05;;
70806;SDS011;58882;52.170;5.386;2023-01-10T04:49:12;17.15;;;1.92;;
70806;SDS011;58882;52.170;5.386;2023-01-10T04:51:52;11.32;;;1.90;;
70806;SDS011;58882;52.170;5.386;2023-01-10T04:54:39;13.48;;;2.28;;
70806;SDS011;58882;52.170;5.386;2023-01-10T04:57:19;15.38;;;2.85;;
70806;SDS011;58882;52.170;5.386;2023-01-10T05:00:06;13.43;;;2.03;;
70806;SDS011;58882;52.170;5.386;2023-01-10T05:02:47;16.38;;;2.20;;
70806;SDS011;58882;52.170;5.386;2023-01-10T05:05:41;16.75;;;2.15;;
70806;SDS011;58882;52.170;5.386;2023-01-10T05:08:14;19.33;;;2.72;;
70806;SDS011;58882;52.170;5.386;2023-01-10T05:11:08;15.18;;;1.95;;
70806;SDS011;58882;52.170;5.386;2023-01-10T05:13:48;15.95;;;2.25;;
70806;SDS011;58882;52.170;5.386;2023-01-10T05:16:36;17.23;;;2.20;;
70806;SDS011;58882;52.170;5.386;2023-01-10T05:19:16;13.20;;;2.00;;
70806;SDS011;58882;52.170;5.386;2023-01-10T05:22:03;14.07;;;2.20;;
70806;SDS011;58882;52.170;5.386;2023-01-10T05:24:36;15.55;;;2.55;;
70806;SDS011;58882;52.170;5.386;2023-01-10T05:27:30;14.18;;;2.60;;
70806;SDS011;58882;52.170;5.386;2023-01-10T05:30:03;15.20;;;2.33;;
70806;SDS011;58882;52.170;5.386;2023-01-10T05:32:57;17.60;;;1.92;;
70806;SDS011;58882;52.170;5.386;2023-01-10T05:35:37;15.40;;;1.90;;
70806;SDS011;58882;52.170;5.386;2023-01-10T05:38:24;17.33;;;1.88;;
70806;SDS011;58882;52.170;5.386;2023-01-10T05:41:04;19.42;;;2.28;;
70806;SDS011;58882;52.170;5.386;2023-01-10T05:43:52;11.43;;;2.00;;
70806;SDS011;58882;52.170;5.386;2023-01-10T05:46:32;12.85;;;2.00;;
70806;SDS011;58882;52.170;5.386;2023-01-10T05:49:19;16.33;;;2.47;;
70806;SDS011;58882;52.170;5.386;2023-01-10T05:51:59;14.82;;;2.67;;
70806;SDS011;58882;52.170;5.386;2023-01-10T05:54:46;19.15;;;2.00;;
70806;SDS011;58882;52.170;5.386;2023-01-10T05:57:26;12.82;;;2.30;;
70806;SDS011;58882;52.170;5.386;2023-01-10T06:00:20;13.38;;;1.92;;
70806;SDS011;58882;52.170;5.386;2023-01-10T06:03:15;15.05;;;2.47;;
70806;SDS011;58882;52.170;5.386;2023-01-10T06:05:56;18.13;;;2.13;;
70806;SDS011;58882;52.170;5.386;2023-01-10T06:08:43;16.35;;;3.03;;
70806;SDS011;58882;52.170;5.386;2023-01-10T06:11:23;13.85;;;2.30;;
70806;SDS011;58882;52.170;5.386;2023-01-10T06:14:17;13.23;;;2.60;;
70806;SDS011;58882;52.170;5.386;2023-01-10T06:16:57;10.60;;;2.22;;
70806;SDS011;58882;52.170;5.386;2023-01-10T06:19:44;11.98;;;2.17;;
70806;SDS011;58882;52.170;5.386;2023-01-10T06:22:24;16.55;;;2.47;;
70806;SDS011;58882;52.170;5.386;2023-01-10T06:25:13;11.60;;;1.98;;
70806;SDS011;58882;52.170;5.386;2023-01-10T06:27:46;16.27;;;2.42;;
70806;SDS011;58882;52.170;5.386;2023-01-10T06:30:40;10.55;;;2.10;;
70806;SDS011;58882;52.170;5.386;2023-01-10T06:33:37;14.90;;;2.25;;
70806;SDS011;58882;52.170;5.386;2023-01-10T06:36:31;17.52;;;2.65;;
70806;SDS011;58882;52.170;5.386;2023-01-10T06:39:11;12.70;;;2.28;;
70806;SDS011;58882;52.170;5.386;2023-01-10T06:41:58;21.38;;;3.10;;
70806;SDS011;58882;52.170;5.386;2023-01-10T06:44:39;21.90;;;3.13;;
70806;SDS011;58882;52.170;5.386;2023-01-10T06:47:26;15.00;;;2.30;;
70806;SDS011;58882;52.170;5.386;2023-01-10T06:50:06;12.35;;;2.42;;
70806;SDS011;58882;52.170;5.386;2023-01-10T06:53:01;14.77;;;2.30;;
70806;SDS011;58882;52.170;5.386;2023-01-10T06:55:36;16.38;;;2.60;;
70806;SDS011;58882;52.170;5.386;2023-01-10T06:58:30;14.55;;;2.28;;
70806;SDS011;58882;52.170;5.386;2023-01-10T07:01:05;14.57;;;2.28;;
70806;SDS011;58882;52.170;5.386;2023-01-10T07:04:00;17.15;;;2.50;;
70806;SDS011;58882;52.170;5.386;2023-01-10T07:06:40;17.25;;;2.45;;
70806;SDS011;58882;52.170;5.386;2023-01-10T07:09:27;18.40;;;2.40;;
70806;SDS011;58882;52.170;5.386;2023-01-10T07:12:01;13.80;;;2.05;;
70806;SDS011;58882;52.170;5.386;2023-01-10T07:14:55;16.65;;;2.50;;
70806;SDS011;58882;52.170;5.386;2023-01-10T07:17:35;12.45;;;2.35;;
70806;SDS011;58882;52.170;5.386;2023-01-10T07:20:29;15.48;;;2.15;;
70806;SDS011;58882;52.170;5.386;2023-01-10T07:23:09;11.85;;;2.08;;
70806;SDS011;58882;52.170;5.386;2023-01-10T07:26:04;10.88;;;2.00;;
70806;SDS011;58882;52.170;5.386;2023-01-10T07:28:49;11.40;;;2.20;;
70806;SDS011;58882;52.170;5.386;2023-01-10T07:31:43;13.30;;;2.00;;
70806;SDS011;58882;52.170;5.386;2023-01-10T07:34:23;12.77;;;2.50;;
70806;SDS011;58882;52.170;5.386;2023-01-10T07:37:10;9.75;;;2.03;;
70806;SDS011;58882;52.170;5.386;2023-01-10T07:39:50;11.00;;;1.90;;
70806;SDS011;58882;52.170;5.386;2023-01-10T07:42:37;13.48;;;2.42;;
70806;SDS011;58882;52.170;5.386;2023-01-10T07:45:17;12.27;;;2.40;;
70806;SDS011;58882;52.170;5.386;2023-01-10T07:50:45;9.80;;;2.25;;
70806;SDS011;58882;52.170;5.386;2023-01-10T07:53:39;13.70;;;2.10;;
70806;SDS011;58882;52.170;5.386;2023-01-10T07:56:19;8.90;;;2.00;;
70806;SDS011;58882;52.170;5.386;2023-01-10T07:59:06;11.52;;;2.30;;
70806;SDS011;58882;52.170;5.386;2023-01-10T08:01:53;11.60;;;2.08;;
70806;SDS011;58882;52.170;5.386;2023-01-10T08:04:33;10.60;;;2.20;;
70806;SDS011;58882;52.170;5.386;2023-01-10T08:07:20;8.98;;;2.13;;
70806;SDS011;58882;52.170;5.386;2023-01-10T08:09:53;11.73;;;2.22;;
70806;SDS011;58882;52.170;5.386;2023-01-10T08:12:48;12.10;;;2.42;;
70806;SDS011;58882;52.170;5.386;2023-01-10T08:15:29;12.73;;;2.55;;
70806;SDS011;58882;52.170;5.386;2023-01-10T08:18:16;10.48;;;2.33;;
70806;SDS011;58882;52.170;5.386;2023-01-10T08:20:57;14.30;;;2.70;;
70806;SDS011;58882;52.170;5.386;2023-01-10T08:23:44;11.40;;;2.50;;
70806;SDS011;58882;52.170;5.386;2023-01-10T08:26:24;14.00;;;2.50;;
70806;SDS011;58882;52.170;5.386;2023-01-10T08:29:11;11.90;;;2.60;;
70806;SDS011;58882;52.170;5.386;2023-01-10T08:31:51;10.98;;;2.35;;
70806;SDS011;58882;52.170;5.386;2023-01-10T08:34:38;13.48;;;2.38;;
70806;SDS011;58882;52.170;5.386;2023-01-10T08:37:18;11.25;;;2.50;;
70806;SDS011;58882;52.170;5.386;2023-01-10T08:40:05;14.30;;;2.58;;
70806;SDS011;58882;52.170;5.386;2023-01-10T08:42:46;10.10;;;2.22;;
70806;SDS011;58882;52.170;5.386;2023-01-10T08:45:33;15.13;;;2.63;;
70806;SDS011;58882;52.170;5.386;2023-01-10T08:48:13;12.93;;;2.42;;
70806;SDS011;58882;52.170;5.386;2023-01-10T08:51:06;10.57;;;2.55;;
70806;SDS011;58882;52.170;5.386;2023-01-10T08:53:48;14.15;;;2.72;;
70806;SDS011;58882;52.170;5.386;2023-01-10T08:56:42;11.85;;;2.55;;
70806;SDS011;58882;52.170;5.386;2023-01-10T08:59:22;13.00;;;2.50;;
70806;SDS011;58882;52.170;5.386;2023-01-10T09:02:11;13.93;;;2.42;;
70806;SDS011;58882;52.170;5.386;2023-01-10T09:04:52;11.30;;;2.58;;
70806;SDS011;58882;52.170;5.386;2023-01-10T09:08:01;12.10;;;2.25;;
70806;SDS011;58882;52.170;5.386;2023-01-10T09:13:29;11.77;;;2.83;;
70806;SDS011;58882;52.170;5.386;2023-01-10T09:18:57;11.52;;;2.38;;
70806;SDS011;58882;52.170;5.386;2023-01-10T09:21:37;10.32;;;2.45;;
70806;SDS011;58882;52.170;5.386;2023-01-10T09:24:24;14.65;;;2.38;;
70806;SDS011;58882;52.170;5.386;2023-01-10T09:29:51;9.02;;;1.92;;
70806;SDS011;58882;52.170;5.386;2023-01-10T09:35:18;13.30;;;2.50;;
70806;SDS011;58882;52.170;5.386;2023-01-10T09:37:59;14.55;;;2.80;;
70806;SDS011;58882;52.170;5.386;2023-01-10T09:44:01;9.32;;;2.22;;
70806;SDS011;58882;52.170;5.386;2023-01-10T09:49:59;12.35;;;2.42;;
70806;SDS011;58882;52.170;5.386;2023-01-10T09:52:53;16.17;;;2.33;;
70806;SDS011;58882;52.170;5.386;2023-01-10T09:55:32;11.52;;;2.42;;
70806;SDS011;58882;52.170;5.386;2023-01-10T09:58:29;13.77;;;2.55;;
70806;SDS011;58882;52.170;5.386;2023-01-10T10:01:28;9.55;;;2.22;;
70806;SDS011;58882;52.170;5.386;2023-01-10T10:04:32;12.80;;;2.45;;
70806;SDS011;58882;52.170;5.386;2023-01-10T10:07:10;12.27;;;2.15;;
70806;SDS011;58882;52.170;5.386;2023-01-10T10:10:11;11.55;;;2.33;;
70806;SDS011;58882;52.170;5.386;2023-01-10T10:13:01;15.85;;;2.63;;
70806;SDS011;58882;52.170;5.386;2023-01-10T10:16:21;13.38;;;2.45;;
70806;SDS011;58882;52.170;5.386;2023-01-10T10:19:22;13.52;;;2.38;;
70806;SDS011;58882;52.170;5.386;2023-01-10T10:26:11;13.40;;;2.70;;
70806;SDS011;58882;52.170;5.386;2023-01-10T10:29:08;12.15;;;2.50;;
70806;SDS011;58882;52.170;5.386;2023-01-10T10:35:34;15.80;;;2.45;;
70806;SDS011;58882;52.170;5.386;2023-01-10T10:38:18;12.23;;;2.33;;
70806;SDS011;58882;52.170;5.386;2023-01-10T10:41:19;12.43;;;2.28;;
70806;SDS011;58882;52.170;5.386;2023-01-10T10:44:31;15.82;;;2.70;;
70806;SDS011;58882;52.170;5.386;2023-01-10T10:47:28;13.57;;;2.30;;
70806;SDS011;58882;52.170;5.386;2023-01-10T10:53:08;13.82;;;2.35;;
70806;SDS011;58882;52.170;5.386;2023-01-10T10:55:43;14.43;;;2.10;;
70806;SDS011;58882;52.170;5.386;2023-01-10T10:58:38;14.10;;;2.55;;
70806;SDS011;58882;52.170;5.386;2023-01-10T11:01:14;12.80;;;2.28;;
70806;SDS011;58882;52.170;5.386;2023-01-10T11:04:12;12.93;;;2.63;;
70806;SDS011;58882;52.170;5.386;2023-01-10T11:06:47;10.40;;;2.10;;
70806;SDS011;58882;52.170;5.386;2023-01-10T11:09:41;13.43;;;2.30;;
70806;SDS011;58882;52.170;5.386;2023-01-10T11:12:17;15.00;;;2.63;;
70806;SDS011;58882;52.170;5.386;2023-01-10T11:15:48;11.98;;;2.30;;
70806;SDS011;58882;52.170;5.386;2023-01-10T11:18:24;13.15;;;2.38;;
70806;SDS011;58882;52.170;5.386;2023-01-10T11:21:17;11.95;;;2.45;;
70806;SDS011;58882;52.170;5.386;2023-01-10T11:23:58;12.60;;;2.10;;
70806;SDS011;58882;52.170;5.386;2023-01-10T11:26:52;13.10;;;2.58;;
70806;SDS011;58882;52.170;5.386;2023-01-10T11:29:27;10.18;;;2.15;;
70806;SDS011;58882;52.170;5.386;2023-01-10T11:32:37;14.98;;;2.65;;
70806;SDS011;58882;52.170;5.386;2023-01-10T11:35:30;10.85;;;2.17;;
70806;SDS011;58882;52.170;5.386;2023-01-10T11:38:19;10.45;;;1.95;;
70806;SDS011;58882;52.170;5.386;2023-01-10T11:44:13;12.70;;;2.30;;
70806;SDS011;58882;52.170;5.386;2023-01-10T11:46:47;15.65;;;2.40;;
70806;SDS011;58882;52.170;5.386;2023-01-10T11:49:42;12.65;;;2.40;;
70806;SDS011;58882;52.170;5.386;2023-01-10T11:52:19;10.48;;;2.10;;
70806;SDS011;58882;52.170;5.386;2023-01-10T11:55:19;9.80;;;2.08;;
70806;SDS011;58882;52.170;5.386;2023-01-10T11:58:02;16.13;;;2.25;;
70806;SDS011;58882;52.170;5.386;2023-01-10T12:01:16;12.75;;;2.17;;
70806;SDS011;58882;52.170;5.386;2023-01-10T12:04:15;12.32;;;2.13;;
70806;SDS011;58882;52.170;5.386;2023-01-10T12:07:03;11.35;;;2.28;;
70806;SDS011;58882;52.170;5.386;2023-01-10T12:09:53;11.23;;;2.15;;
70806;SDS011;58882;52.170;5.386;2023-01-10T12:12:54;14.43;;;2.55;;
70806;SDS011;58882;52.170;5.386;2023-01-10T12:15:30;11.50;;;2.33;;
70806;SDS011;58882;52.170;5.386;2023-01-10T12:20:57;12.95;;;2.15;;
70806;SDS011;58882;52.170;5.386;2023-01-10T12:23:52;13.27;;;2.05;;
70806;SDS011;58882;52.170;5.386;2023-01-10T12:26:30;12.65;;;2.03;;
70806;SDS011;58882;52.170;5.386;2023-01-10T12:29:26;9.30;;;2.15;;
70806;SDS011;58882;52.170;5.386;2023-01-10T12:32:18;10.18;;;1.80;;
70806;SDS011;58882;52.170;5.386;2023-01-10T12:35:12;15.75;;;2.83;;
70806;SDS011;58882;52.170;5.386;2023-01-10T12:44:43;10.90;;;2.20;;
70806;SDS011;58882;52.170;5.386;2023-01-10T12:50:19;7.70;;;1.95;;
70806;SDS011;58882;52.170;5.386;2023-01-10T12:53:27;10.07;;;2.00;;
70806;SDS011;58882;52.170;5.386;2023-01-10T12:56:08;10.10;;;2.08;;
70806;SDS011;58882;52.170;5.386;2023-01-10T12:59:13;9.82;;;2.03;;
70806;SDS011;58882;52.170;5.386;2023-01-10T13:02:15;9.88;;;1.90;;
70806;SDS011;58882;52.170;5.386;2023-01-10T13:05:45;8.88;;;2.03;;
70806;SDS011;58882;52.170;5.386;2023-01-10T13:08:12;12.75;;;2.17;;
70806;SDS011;58882;52.170;5.386;2023-01-10T13:11:08;11.23;;;2.20;;
70806;SDS011;58882;52.170;5.386;2023-01-10T13:13:55;11.88;;;2.20;;
70806;SDS011;58882;52.170;5.386;2023-01-10T13:16:53;8.43;;;1.83;;
70806;SDS011;58882;52.170;5.386;2023-01-10T13:19:37;11.13;;;1.98;;
70806;SDS011;58882;52.170;5.386;2023-01-10T13:22:34;11.68;;;1.92;;
70806;SDS011;58882;52.170;5.386;2023-01-10T13:31:21;11.68;;;2.10;;
70806;SDS011;58882;52.170;5.386;2023-01-10T13:34:15;13.27;;;2.13;;
70806;SDS011;58882;52.170;5.386;2023-01-10T13:36:58;8.88;;;1.80;;
70806;SDS011;58882;52.170;5.386;2023-01-10T13:39:54;12.07;;;2.03;;
70806;SDS011;58882;52.170;5.386;2023-01-10T13:42:37;12.05;;;2.05;;
70806;SDS011;58882;52.170;5.386;2023-01-10T13:54:58;10.85;;;2.17;;
70806;SDS011;58882;52.170;5.386;2023-01-10T13:57:55;14.48;;;2.33;;
70806;SDS011;58882;52.170;5.386;2023-01-10T14:03:55;9.93;;;2.08;;
70806;SDS011;58882;52.170;5.386;2023-01-10T14:06:37;11.00;;;2.15;;
70806;SDS011;58882;52.170;5.386;2023-01-10T14:09:28;10.52;;;2.15;;
70806;SDS011;58882;52.170;5.386;2023-01-10T14:15:27;13.68;;;2.20;;
70806;SDS011;58882;52.170;5.386;2023-01-10T14:18:23;9.20;;;2.00;;
70806;SDS011;58882;52.170;5.386;2023-01-10T14:21:24;10.98;;;1.90;;
70806;SDS011;58882;52.170;5.386;2023-01-10T14:24:00;12.75;;;2.30;;
70806;SDS011;58882;52.170;5.386;2023-01-10T14:29:31;11.38;;;2.25;;
70806;SDS011;58882;52.170;5.386;2023-01-10T14:32:29;11.98;;;2.13;;
70806;SDS011;58882;52.170;5.386;2023-01-10T14:38:01;10.73;;;2.10;;
70806;SDS011;58882;52.170;5.386;2023-01-10T14:40:43;13.45;;;2.55;;
70806;SDS011;58882;52.170;5.386;2023-01-10T14:43:36;12.65;;;2.00;;
70806;SDS011;58882;52.170;5.386;2023-01-10T14:46:29;10.18;;;2.20;;
70806;SDS011;58882;52.170;5.386;2023-01-10T14:49:25;7.80;;;2.00;;
70806;SDS011;58882;52.170;5.386;2023-01-10T14:52:26;10.98;;;1.95;;
70806;SDS011;58882;52.170;5.386;2023-01-10T14:55:15;9.55;;;1.88;;
70806;SDS011;58882;52.170;5.386;2023-01-10T14:58:00;11.95;;;2.00;;
70806;SDS011;58882;52.170;5.386;2023-01-10T15:00:48;13.75;;;2.15;;
70806;SDS011;58882;52.170;5.386;2023-01-10T15:03:45;9.55;;;2.25;;
70806;SDS011;58882;52.170;5.386;2023-01-10T15:06:26;8.70;;;1.88;;
70806;SDS011;58882;52.170;5.386;2023-01-10T15:12:00;10.25;;;2.33;;
70806;SDS011;58882;52.170;5.386;2023-01-10T15:14:54;10.07;;;2.00;;
70806;SDS011;58882;52.170;5.386;2023-01-10T15:17:58;7.82;;;1.98;;
70806;SDS011;58882;52.170;5.386;2023-01-10T15:20:48;9.32;;;2.30;;
70806;SDS011;58882;52.170;5.386;2023-01-10T15:26:26;11.98;;;2.10;;
70806;SDS011;58882;52.170;5.386;2023-01-10T15:29:10;9.10;;;2.22;;
70806;SDS011;58882;52.170;5.386;2023-01-10T15:32:02;13.20;;;2.08;;
70806;SDS011;58882;52.170;5.386;2023-01-10T15:34:50;7.88;;;1.65;;
70806;SDS011;58882;52.170;5.386;2023-01-10T15:37:39;9.90;;;2.13;;
70806;SDS011;58882;52.170;5.386;2023-01-10T15:40:33;13.15;;;2.30;;
70806;SDS011;58882;52.170;5.386;2023-01-10T15:43:23;8.85;;;1.73;;
70806;SDS011;58882;52.170;5.386;2023-01-10T15:46:05;9.40;;;1.80;;
70806;SDS011;58882;52.170;5.386;2023-01-10T15:49:20;6.47;;;1.58;;
70806;SDS011;58882;52.170;5.386;2023-01-10T15:52:17;10.70;;;1.88;;
70806;SDS011;58882;52.170;5.386;2023-01-10T15:55:34;7.60;;;1.70;;
70806;SDS011;58882;52.170;5.386;2023-01-10T16:01:14;8.45;;;1.65;;
70806;SDS011;58882;52.170;5.386;2023-01-10T16:04:10;8.63;;;1.65;;
70806;SDS011;58882;52.170;5.386;2023-01-10T16:06:53;9.07;;;2.08;;
70806;SDS011;58882;52.170;5.386;2023-01-10T16:09:52;11.80;;;2.28;;
70806;SDS011;58882;52.170;5.386;2023-01-10T16:12:37;7.15;;;1.67;;
70806;SDS011;58882;52.170;5.386;2023-01-10T16:15:44;7.80;;;1.70;;
70806;SDS011;58882;52.170;5.386;2023-01-10T16:21:12;8.50;;;1.90;;
70806;SDS011;58882;52.170;5.386;2023-01-10T16:23:53;7.10;;;1.70;;
70806;SDS011;58882;52.170;5.386;2023-01-10T16:26:40;8.82;;;2.00;;
70806;SDS011;58882;52.170;5.386;2023-01-10T16:32:13;7.10;;;1.40;;
70806;SDS011;58882;52.170;5.386;2023-01-10T16:34:54;8.50;;;1.70;;
70806;SDS011;58882;52.170;5.386;2023-01-10T16:37:41;6.60;;;1.60;;
70806;SDS011;58882;52.170;5.386;2023-01-10T16:40:33;6.47;;;1.60;;
70806;SDS011;58882;52.170;5.386;2023-01-10T16:43:29;8.05;;;1.80;;
70806;SDS011;58882;52.170;5.386;2023-01-10T16:46:09;6.10;;;1.60;;
70806;SDS011;58882;52.170;5.386;2023-01-10T16:48:56;6.43;;;1.48;;
70806;SDS011;58882;52.170;5.386;2023-01-10T16:54:24;6.07;;;1.50;;
70806;SDS011;58882;52.170;5.386;2023-01-10T16:57:04;5.95;;;1.50;;
70806;SDS011;58882;52.170;5.386;2023-01-10T16:59:52;5.07;;;1.30;;
70806;SDS011;58882;52.170;5.386;2023-01-10T17:05:19;5.20;;;1.38;;
70806;SDS011;58882;52.170;5.386;2023-01-10T17:08:08;4.90;;;1.38;;
70806;SDS011;58882;52.170;5.386;2023-01-10T17:10:51;9.30;;;1.60;;
70806;SDS011;58882;52.170;5.386;2023-01-10T17:13:48;4.93;;;1.40;;
70806;SDS011;58882;52.170;5.386;2023-01-10T17:19:15;4.05;;;1.15;;
70806;SDS011;58882;52.170;5.386;2023-01-10T17:21:56;2.63;;;1.00;;
70806;SDS011;58882;52.170;5.386;2023-01-10T17:27:23;5.07;;;1.27;;
70806;SDS011;58882;52.170;5.386;2023-01-10T17:30:17;3.58;;;1.30;;
70806;SDS011;58882;52.170;5.386;2023-01-10T17:32:50;3.58;;;1.02;;
70806;SDS011;58882;52.170;5.386;2023-01-10T17:38:26;2.78;;;1.00;;
70806;SDS011;58882;52.170;5.386;2023-01-10T17:41:14;3.78;;;1.10;;
70806;SDS011;58882;52.170;5.386;2023-01-10T17:43:54;4.15;;;1.05;;
70806;SDS011;58882;52.170;5.386;2023-01-10T17:49:21;4.22;;;1.35;;
70806;SDS011;58882;52.170;5.386;2023-01-10T17:52:16;2.53;;;1.00;;
70806;SDS011;58882;52.170;5.386;2023-01-10T17:54:50;3.50;;;0.95;;
70806;SDS011;58882;52.170;5.386;2023-01-10T17:57:44;2.97;;;0.98;;
70806;SDS011;58882;52.170;5.386;2023-01-10T18:00:17;5.25;;;1.33;;
70806;SDS011;58882;52.170;5.386;2023-01-10T18:03:12;3.03;;;1.00;;
70806;SDS011;58882;52.170;5.386;2023-01-10T18:06:07;2.15;;;1.00;;
70806;SDS011;58882;52.170;5.386;2023-01-10T18:08:56;1.77;;;0.85;;
70806;SDS011;58882;52.170;5.386;2023-01-10T18:11:39;3.58;;;1.27;;
70806;SDS011;58882;52.170;5.386;2023-01-10T18:14:33;2.80;;;1.08;;
70806;SDS011;58882;52.170;5.386;2023-01-10T18:17:13;2.80;;;1.10;;
70806;SDS011;58882;52.170;5.386;2023-01-10T18:22:41;1.95;;;1.00;;
70806;SDS011;58882;52.170;5.386;2023-01-10T18:25:57;2.72;;;1.30;;
70806;SDS011;58882;52.170;5.386;2023-01-10T18:28:38;5.15;;;1.30;;
70806;SDS011;58882;52.170;5.386;2023-01-10T18:31:34;3.30;;;1.33;;
70806;SDS011;58882;52.170;5.386;2023-01-10T18:34:15;7.28;;;1.30;;
70806;SDS011;58882;52.170;5.386;2023-01-10T18:37:09;2.38;;;1.35;;
70806;SDS011;58882;52.170;5.386;2023-01-10T18:39:49;2.88;;;1.27;;
70806;SDS011;58882;52.170;5.386;2023-01-10T18:42:43;8.13;;;1.45;;
70806;SDS011;58882;52.170;5.386;2023-01-10T18:45:16;3.53;;;1.33;;
70806;SDS011;58882;52.170;5.386;2023-01-10T18:48:12;2.63;;;1.33;;
70806;SDS011;58882;52.170;5.386;2023-01-10T18:50:48;3.53;;;1.50;;
70806;SDS011;58882;52.170;5.386;2023-01-10T18:53:47;2.80;;;1.30;;
70806;SDS011;58882;52.170;5.386;2023-01-10T18:56:20;2.22;;;1.40;;
70806;SDS011;58882;52.170;5.386;2023-01-10T19:02:01;4.43;;;1.40;;
70806;SDS011;58882;52.170;5.386;2023-01-10T19:04:55;4.13;;;1.52;;
70806;SDS011;58882;52.170;5.386;2023-01-10T19:07:35;3.17;;;1.40;;
70806;SDS011;58882;52.170;5.386;2023-01-10T19:10:22;3.33;;;1.50;;
70806;SDS011;58882;52.170;5.386;2023-01-10T19:13:21;3.92;;;1.60;;